Time;durP1;ratioP1;P1;durP2;ratioP2;P2;SDS_P1;SDS_P2;PMS_P1;PMS_P2;Temp;Humidity;BMP_temperature;BMP_pressure;BME280_temperature;BME280_humidity;BME280_pressure;Samples;Min_cycle;Max_cycle;Signal;HPM_P1;HPM_P2
2022/12/31 00:00:40;;;;;;;13.55;3.88;;;11.30;99.90;;;;;;5094336;28;20043;-64
2022/12/31 00:03:09;;;;;;;11.70;3.45;;;11.30;99.90;;;;;;5095493;27;20066;-64
2022/12/31 00:05:36;;;;;;;12.20;3.67;;;11.40;99.90;;;;;;5116322;28;20048;-63
2022/12/31 00:08:04;;;;;;;9.75;2.67;;;11.40;99.90;;;;;;5116844;27;20040;-62
2022/12/31 00:10:33;;;;;;;15.38;3.70;;;11.40;99.90;;;;;;5116907;27;20047;-64
2022/12/31 00:12:59;;;;;;;10.13;2.63;;;11.40;99.90;;;;;;5116061;27;20075;-66
2022/12/31 00:15:26;;;;;;;9.05;2.88;;;11.40;99.90;;;;;;5098488;28;20055;-67
2022/12/31 00:17:53;;;;;;;7.38;3.03;;;11.40;99.90;;;;;;5097637;28;20039;-67
2022/12/31 00:20:21;;;;;;;13.77;3.97;;;11.40;99.90;;;;;;5098294;28;20120;-68
2022/12/31 00:22:48;;;;;;;6.75;3.00;;;11.40;99.90;;;;;;5116460;27;20049;-67
2022/12/31 00:25:15;;;;;;;9.93;3.13;;;11.40;99.90;;;;;;5118856;27;20039;-68
2022/12/31 00:27:42;;;;;;;8.65;3.33;;;11.40;99.90;;;;;;5117162;27;20120;-68
2022/12/31 00:30:10;;;;;;;12.98;4.00;;;11.40;99.90;;;;;;5135758;27;20050;-68
2022/12/31 00:32:37;;;;;;;11.30;3.88;;;11.40;99.90;;;;;;5114208;27;20051;-67
2022/12/31 00:35:05;;;;;;;13.52;3.70;;;11.40;99.90;;;;;;5116621;27;20392;-65
2022/12/31 00:37:33;;;;;;;15.60;4.00;;;11.40;99.90;;;;;;5115605;27;20054;-64
2022/12/31 00:40:00;;;;;;;11.82;4.22;;;11.40;99.90;;;;;;5116160;27;20391;-64
2022/12/31 00:42:27;;;;;;;8.48;3.92;;;11.40;99.90;;;;;;5135295;27;20042;-64
2022/12/31 00:44:54;;;;;;;14.95;3.75;;;11.50;99.90;;;;;;5097783;28;20411;-64
2022/12/31 00:47:23;;;;;;;15.00;4.38;;;11.40;99.90;;;;;;5096804;28;20065;-64
2022/12/31 00:49:50;;;;;;;9.63;4.45;;;11.40;99.90;;;;;;5097645;28;20051;-63
2022/12/31 00:52:17;;;;;;;16.23;4.10;;;11.40;99.90;;;;;;5099516;27;20050;-63
2022/12/31 00:54:45;;;;;;;14.13;4.00;;;11.40;99.90;;;;;;5097142;28;20051;-63
2022/12/31 00:57:12;;;;;;;17.25;4.75;;;11.50;99.90;;;;;;5097496;28;20058;-64
2022/12/31 00:59:39;;;;;;;8.10;3.83;;;11.50;99.90;;;;;;5097532;27;20059;-64
2022/12/31 01:02:06;;;;;;;16.35;4.18;;;11.40;99.90;;;;;;5115040;27;20035;-64
2022/12/31 01:04:33;;;;;;;14.05;4.90;;;11.40;99.90;;;;;;5115862;27;20044;-65
2022/12/31 01:07:00;;;;;;;19.45;4.15;;;11.40;99.90;;;;;;5115091;27;20483;-63
2022/12/31 01:09:27;;;;;;;25.63;4.70;;;11.40;99.90;;;;;;5096974;28;20039;-64
2022/12/31 01:11:55;;;;;;;13.15;3.97;;;11.40;99.90;;;;;;5097134;28;20043;-64
2022/12/31 01:14:22;;;;;;;14.52;3.90;;;11.40;99.90;;;;;;5096156;28;20051;-64
2022/12/31 01:16:51;;;;;;;15.65;4.53;;;11.40;99.90;;;;;;5115563;27;20047;-63
2022/12/31 01:19:21;;;;;;;16.33;4.85;;;11.40;99.90;;;;;;5115616;28;20047;-63
2022/12/31 01:21:49;;;;;;;14.48;4.57;;;11.40;99.90;;;;;;5112589;27;20039;-63
2022/12/31 01:24:16;;;;;;;20.38;4.80;;;11.40;99.90;;;;;;5115351;27;20059;-63
2022/12/31 01:26:44;;;;;;;16.95;4.45;;;11.40;99.90;;;;;;5096793;28;20055;-63
2022/12/31 01:29:15;;;;;;;19.40;4.32;;;11.40;99.90;;;;;;5098475;28;20047;-64
2022/12/31 01:31:42;;;;;;;14.25;4.40;;;11.40;99.90;;;;;;5096840;27;20395;-63
2022/12/31 01:34:09;;;;;;;9.80;4.25;;;11.40;99.90;;;;;;5115095;28;20048;-63
2022/12/31 01:36:37;;;;;;;11.05;5.28;;;11.40;99.90;;;;;;5114579;27;20063;-63
2022/12/31 01:39:07;;;;;;;12.68;5.20;;;11.40;99.90;;;;;;5114742;28;20047;-63
2022/12/31 01:41:36;;;;;;;11.25;4.30;;;11.40;99.90;;;;;;5096199;28;20130;-64
2022/12/31 01:44:42;;;;;;;17.70;4.07;;;11.40;99.90;;;;;;5114461;27;20054;-63
2022/12/31 01:47:15;;;;;;;12.32;4.93;;;11.30;99.90;;;;;;5117789;27;20095;-64
2022/12/31 01:49:44;;;;;;;10.50;4.00;;;11.30;99.90;;;;;;5114495;27;20511;-63
2022/12/31 01:52:14;;;;;;;11.43;3.85;;;11.40;99.90;;;;;;5114224;27;20429;-64
2022/12/31 01:54:47;;;;;;;9.18;3.97;;;11.30;99.90;;;;;;5109644;27;20047;-63
2022/12/31 01:57:15;;;;;;;10.77;4.80;;;11.30;99.90;;;;;;5106346;27;20443;-63
2022/12/31 01:59:43;;;;;;;10.23;4.05;;;11.40;99.90;;;;;;5133722;27;20047;-64
2022/12/31 02:02:12;;;;;;;14.73;4.57;;;11.40;99.90;;;;;;5113879;27;20426;-65
2022/12/31 02:04:39;;;;;;;10.75;4.10;;;11.40;99.90;;;;;;5098081;28;20063;-64
2022/12/31 02:07:07;;;;;;;11.07;3.72;;;11.40;99.90;;;;;;5096386;28;20059;-65
2022/12/31 02:09:37;;;;;;;11.82;4.90;;;11.40;99.90;;;;;;5096099;28;20120;-65
2022/12/31 02:12:05;;;;;;;8.70;3.92;;;11.40;99.90;;;;;;5095583;28;20487;-64
2022/12/31 02:14:34;;;;;;;13.93;3.90;;;11.40;99.90;;;;;;5095817;28;20054;-64
2022/12/31 02:17:07;;;;;;;10.50;4.30;;;11.40;99.90;;;;;;5114302;27;20535;-63
2022/12/31 02:20:22;;;;;;;7.40;3.78;;;11.40;99.90;;;;;;5095153;28;20052;-63
2022/12/31 02:23:20;;;;;;;9.38;3.58;;;11.50;99.90;;;;;;5130308;27;20054;-64
2022/12/31 02:26:10;;;;;;;9.52;3.40;;;11.50;99.90;;;;;;5112796;28;20059;-64
2022/12/31 02:28:57;;;;;;;7.82;3.75;;;11.40;99.90;;;;;;5112948;27;20055;-64
2022/12/31 02:31:32;;;;;;;7.30;3.50;;;11.40;99.90;;;;;;5113302;28;20479;-64
2022/12/31 02:34:04;;;;;;;9.20;4.05;;;11.50;99.90;;;;;;5113899;27;20492;-64
2022/12/31 02:36:36;;;;;;;7.18;4.00;;;11.40;99.90;;;;;;5114105;27;20050;-64
2022/12/31 02:39:05;;;;;;;6.97;3.65;;;11.50;99.90;;;;;;5095061;28;20104;-64
2022/12/31 02:41:51;;;;;;;8.80;4.18;;;11.50;99.90;;;;;;5095055;28;20054;-64
2022/12/31 02:44:23;;;;;;;5.50;3.25;;;11.50;99.90;;;;;;5113704;27;20036;-63
2022/12/31 02:46:59;;;;;;;12.50;4.25;;;11.50;99.90;;;;;;5094646;28;20097;-64
2022/12/31 02:49:33;;;;;;;6.57;3.10;;;11.50;99.90;;;;;;5113681;27;20043;-64
2022/12/31 02:52:10;;;;;;;8.45;3.58;;;11.50;99.90;;;;;;5113394;27;20048;-64
2022/12/31 02:54:48;;;;;;;7.00;2.90;;;11.50;99.90;;;;;;5094899;28;20070;-64
2022/12/31 02:57:20;;;;;;;8.50;3.33;;;11.50;99.90;;;;;;5095348;28;20044;-64
2022/12/31 03:02:44;;;;;;;6.85;3.35;;;11.50;99.90;;;;;;5094939;28;20052;-64
2022/12/31 03:05:12;;;;;;;8.77;2.70;;;11.40;99.90;;;;;;5113590;28;20050;-64
2022/12/31 03:07:41;;;;;;;7.63;2.83;;;11.40;99.90;;;;;;5094282;27;20059;-64
2022/12/31 03:10:09;;;;;;;4.82;2.22;;;11.40;99.90;;;;;;5109113;28;20043;-63
2022/12/31 03:12:48;;;;;;;10.07;2.67;;;11.40;99.90;;;;;;5113038;27;20051;-63
2022/12/31 03:15:21;;;;;;;4.68;2.25;;;11.40;99.90;;;;;;5094326;28;20078;-63
2022/12/31 03:17:57;;;;;;;9.85;3.15;;;11.40;99.90;;;;;;5095042;28;20047;-63
2022/12/31 03:23:17;;;;;;;5.30;1.92;;;11.30;99.90;;;;;;5094528;28;20120;-63
2022/12/31 03:25:44;;;;;;;7.35;2.83;;;11.30;99.90;;;;;;5112992;27;20491;-63
2022/12/31 03:28:13;;;;;;;10.52;2.60;;;11.30;99.90;;;;;;5112342;28;20475;-63
2022/12/31 03:30:43;;;;;;;11.70;3.00;;;11.30;99.90;;;;;;5094941;28;20070;-63
2022/12/31 03:33:11;;;;;;;7.65;1.83;;;11.20;99.90;;;;;;5094603;28;20047;-63
2022/12/31 03:35:40;;;;;;;8.40;2.58;;;11.20;99.90;;;;;;5094084;28;20128;-63
2022/12/31 03:38:07;;;;;;;4.07;1.90;;;11.20;99.90;;;;;;5094460;28;20050;-63
2022/12/31 03:40:38;;;;;;;6.80;2.20;;;11.10;99.90;;;;;;5094261;28;20088;-63
2022/12/31 03:43:05;;;;;;;5.70;1.83;;;11.10;99.90;;;;;;5093942;28;20044;-63
2022/12/31 03:45:33;;;;;;;6.25;2.13;;;11.10;99.90;;;;;;5112801;28;20070;-63
2022/12/31 03:48:00;;;;;;;5.68;1.70;;;11.10;99.90;;;;;;5094560;28;20100;-63
2022/12/31 03:50:28;;;;;;;4.82;1.42;;;11.00;99.90;;;;;;5094012;28;20043;-63
2022/12/31 03:52:56;;;;;;;3.90;1.38;;;11.00;99.90;;;;;;5094400;28;20066;-63
2022/12/31 03:55:23;;;;;;;4.22;1.88;;;11.00;99.90;;;;;;5094552;28;20051;-63
2022/12/31 03:57:50;;;;;;;6.30;1.98;;;11.00;99.90;;;;;;5093780;28;20048;-63
2022/12/31 04:00:20;;;;;;;3.72;1.60;;;11.00;99.90;;;;;;5094650;28;20779;-62
2022/12/31 04:02:47;;;;;;;6.75;1.30;;;10.90;99.90;;;;;;5093434;28;20108;-63
2022/12/31 04:05:15;;;;;;;6.60;1.88;;;10.90;99.90;;;;;;5113523;28;20047;-62
2022/12/31 04:07:44;;;;;;;8.05;1.48;;;10.90;99.90;;;;;;5112830;28;20063;-63
2022/12/31 04:10:13;;;;;;;5.15;2.25;;;10.90;99.90;;;;;;5131572;28;20047;-63
2022/12/31 04:12:40;;;;;;;3.15;1.10;;;10.90;99.90;;;;;;5113135;28;20047;-63
2022/12/31 04:15:09;;;;;;;6.10;1.30;;;10.90;99.90;;;;;;5112423;28;20044;-63
2022/12/31 04:17:36;;;;;;;2.95;1.50;;;10.90;99.90;;;;;;5106788;28;20047;-63
2022/12/31 04:20:03;;;;;;;2.83;1.17;;;10.90;99.90;;;;;;5113014;28;20507;-63
2022/12/31 04:22:30;;;;;;;5.65;1.33;;;10.90;99.90;;;;;;5111452;28;20048;-63
2022/12/31 04:24:59;;;;;;;6.40;1.30;;;10.90;99.90;;;;;;5113139;28;20055;-64
2022/12/31 04:27:26;;;;;;;5.32;1.38;;;10.90;99.90;;;;;;5131846;28;20482;-63
2022/12/31 04:29:53;;;;;;;6.43;1.40;;;10.90;99.90;;;;;;5131710;28;20411;-63
2022/12/31 04:32:19;;;;;;;5.22;1.48;;;10.90;99.90;;;;;;5112073;28;20040;-63
2022/12/31 04:34:46;;;;;;;6.35;1.92;;;10.90;99.90;;;;;;5093957;28;20052;-64
2022/12/31 04:37:13;;;;;;;3.10;1.35;;;10.90;99.90;;;;;;5094205;28;20047;-64
2022/12/31 04:39:40;;;;;;;4.28;2.15;;;10.90;99.90;;;;;;5093046;28;20067;-64
2022/12/31 04:42:08;;;;;;;5.10;1.70;;;10.90;99.90;;;;;;5112177;28;20147;-64
2022/12/31 04:44:35;;;;;;;4.90;1.85;;;10.90;99.90;;;;;;5094102;28;20056;-64
2022/12/31 04:47:02;;;;;;;5.80;2.22;;;10.80;99.90;;;;;;5093535;28;20048;-64
2022/12/31 04:49:30;;;;;;;6.57;2.33;;;10.80;99.90;;;;;;5096093;27;20052;-65
2022/12/31 04:51:56;;;;;;;5.40;2.15;;;10.80;99.90;;;;;;5115355;27;20048;-63
2022/12/31 04:54:24;;;;;;;4.78;2.42;;;10.70;99.90;;;;;;5115959;28;20055;-63
2022/12/31 04:56:50;;;;;;;9.30;2.83;;;10.70;99.90;;;;;;5115725;27;20048;-64
2022/12/31 04:59:19;;;;;;;5.28;2.25;;;10.80;99.90;;;;;;5097126;28;20058;-63
2022/12/31 05:01:46;;;;;;;10.70;2.80;;;10.70;99.90;;;;;;5115642;27;20048;-64
2022/12/31 05:04:12;;;;;;;6.43;2.83;;;10.70;99.90;;;;;;5097466;28;20099;-64
2022/12/31 05:06:39;;;;;;;5.53;2.28;;;10.70;99.90;;;;;;5115055;27;20047;-64
2022/12/31 05:09:06;;;;;;;7.28;2.40;;;10.80;99.90;;;;;;5097431;28;20044;-64
2022/12/31 05:11:34;;;;;;;8.15;2.33;;;10.70;99.90;;;;;;5097105;28;20063;-64
2022/12/31 05:14:01;;;;;;;6.53;2.22;;;10.70;99.90;;;;;;5096767;27;20044;-64
2022/12/31 05:16:29;;;;;;;4.95;2.83;;;10.70;99.90;;;;;;5097290;28;20048;-64
2022/12/31 05:18:56;;;;;;;9.85;3.17;;;10.60;99.90;;;;;;5115529;27;20071;-64
2022/12/31 05:21:23;;;;;;;4.15;2.58;;;10.70;99.90;;;;;;5096472;28;20074;-64
2022/12/31 05:23:50;;;;;;;5.75;2.22;;;10.70;99.90;;;;;;5115060;28;20403;-64
2022/12/31 05:26:17;;;;;;;4.57;2.30;;;10.70;99.90;;;;;;5096957;28;20047;-64
2022/12/31 05:28:44;;;;;;;6.50;2.80;;;10.60;99.90;;;;;;5096350;28;20051;-65
2022/12/31 05:31:11;;;;;;;10.93;2.50;;;10.60;99.90;;;;;;5115290;27;20040;-64
2022/12/31 05:33:39;;;;;;;5.82;2.40;;;10.50;99.90;;;;;;5096780;27;20059;-65
2022/12/31 05:36:07;;;;;;;5.47;2.40;;;10.60;99.90;;;;;;5096133;27;20096;-64
2022/12/31 05:38:34;;;;;;;8.88;2.47;;;10.60;99.90;;;;;;5115066;27;20055;-65
2022/12/31 05:41:02;;;;;;;8.02;2.45;;;10.60;99.90;;;;;;5096584;28;20074;-64
2022/12/31 05:43:31;;;;;;;11.13;2.90;;;10.60;99.90;;;;;;5113254;27;20043;-64
2022/12/31 05:46:00;;;;;;;7.03;1.95;;;10.60;99.90;;;;;;5115198;27;20522;-64
2022/12/31 05:48:27;;;;;;;7.10;2.40;;;10.60;99.90;;;;;;5133898;27;20074;-64
2022/12/31 05:50:56;;;;;;;5.53;2.22;;;10.60;99.90;;;;;;5111540;27;20472;-64
2022/12/31 05:53:23;;;;;;;6.45;2.10;;;10.60;99.90;;;;;;5114559;27;20480;-64
2022/12/31 05:55:50;;;;;;;5.97;2.30;;;10.70;99.90;;;;;;5133831;27;20047;-64
2022/12/31 05:58:17;;;;;;;9.98;2.25;;;10.70;99.90;;;;;;5114984;27;20060;-63
2022/12/31 06:00:44;;;;;;;5.43;2.38;;;10.70;99.90;;;;;;5114000;27;20055;-64
2022/12/31 06:03:11;;;;;;;6.50;2.53;;;10.70;99.90;;;;;;5133374;27;20039;-63
2022/12/31 06:05:42;;;;;;;7.30;2.20;;;10.70;99.90;;;;;;5114622;27;20415;-64
2022/12/31 06:08:11;;;;;;;6.40;2.45;;;10.70;99.90;;;;;;5096103;28;20051;-64
2022/12/31 06:10:39;;;;;;;5.85;2.35;;;10.70;99.90;;;;;;5112871;27;20055;-63
2022/12/31 06:13:06;;;;;;;4.22;2.38;;;10.70;99.90;;;;;;5114257;27;20487;-64
2022/12/31 06:15:36;;;;;;;3.63;1.85;;;10.70;99.90;;;;;;5113688;27;20066;-64
2022/12/31 06:18:03;;;;;;;6.50;2.17;;;10.60;99.90;;;;;;5114086;27;20284;-64
2022/12/31 06:20:30;;;;;;;7.40;2.40;;;10.60;99.90;;;;;;5113696;27;20496;-64
2022/12/31 06:22:57;;;;;;;6.47;2.75;;;10.60;99.90;;;;;;5133389;27;20050;-63
2022/12/31 06:25:25;;;;;;;4.78;2.63;;;10.50;99.90;;;;;;5114977;27;20050;-63
2022/12/31 06:27:52;;;;;;;4.68;1.50;;;10.50;99.90;;;;;;5114773;27;20054;-64
2022/12/31 06:30:19;;;;;;;4.38;2.20;;;10.50;99.90;;;;;;5133654;27;20046;-63
2022/12/31 06:32:46;;;;;;;5.55;1.90;;;10.40;99.90;;;;;;5094948;28;20047;-64
2022/12/31 06:35:13;;;;;;;5.07;1.52;;;10.40;99.90;;;;;;5100095;28;20540;-64
2022/12/31 06:37:40;;;;;;;4.97;1.08;;;10.30;99.90;;;;;;5111696;28;20066;-63
2022/12/31 06:40:08;;;;;;;2.85;1.20;;;10.30;99.90;;;;;;5093082;28;20051;-63
2022/12/31 06:42:36;;;;;;;2.47;0.90;;;10.20;99.90;;;;;;5098028;27;20055;-64
2022/12/31 06:45:04;;;;;;;4.03;1.17;;;10.10;99.90;;;;;;5111814;28;20419;-63
2022/12/31 06:47:31;;;;;;;4.68;1.20;;;10.10;99.90;;;;;;5100414;28;20450;-63
2022/12/31 06:49:58;;;;;;;3.38;1.40;;;10.00;99.90;;;;;;5098620;27;20051;-63
2022/12/31 06:52:24;;;;;;;4.38;1.58;;;10.10;99.90;;;;;;5098699;28;20414;-63
2022/12/31 06:54:52;;;;;;;6.55;1.33;;;10.00;99.90;;;;;;5101980;27;20062;-64
2022/12/31 06:57:19;;;;;;;2.15;1.20;;;10.00;99.90;;;;;;5119087;27;20054;-64
2022/12/31 06:59:48;;;;;;;4.35;1.50;;;10.00;99.90;;;;;;5101102;28;20402;-64
2022/12/31 07:02:26;;;;;;;3.35;1.42;;;10.00;99.90;;;;;;5098452;27;20380;-63
2022/12/31 07:05:21;;;;;;;3.42;1.90;;;10.00;99.90;;;;;;5098367;27;20054;-63
2022/12/31 07:08:02;;;;;;;5.43;2.42;;;10.00;99.90;;;;;;5090167;28;20454;-63
2022/12/31 07:10:39;;;;;;;5.30;2.95;;;10.10;99.90;;;;;;5099044;28;20055;-63
2022/12/31 07:13:25;;;;;;;6.10;3.30;;;10.20;99.90;;;;;;5100960;28;20487;-63
2022/12/31 07:16:05;;;;;;;7.00;3.95;;;10.20;99.90;;;;;;5112166;28;20043;-63
2022/12/31 07:18:39;;;;;;;7.30;4.20;;;10.20;99.90;;;;;;5097599;28;20536;-62
2022/12/31 07:21:12;;;;;;;5.03;4.07;;;10.30;99.90;;;;;;5111037;28;20051;-63
2022/12/31 07:23:39;;;;;;;4.75;3.67;;;10.30;99.90;;;;;;5096095;28;20067;-64
2022/12/31 07:26:14;;;;;;;5.80;3.88;;;10.30;99.90;;;;;;5111431;28;20051;-64
2022/12/31 07:28:53;;;;;;;5.00;3.20;;;10.30;99.90;;;;;;5111801;28;20044;-64
2022/12/31 07:31:31;;;;;;;5.90;3.15;;;10.40;99.90;;;;;;5099160;28;20043;-64
2022/12/31 07:34:01;;;;;;;6.78;3.78;;;10.30;99.90;;;;;;5099461;28;20051;-64
2022/12/31 07:36:50;;;;;;;7.23;4.17;;;10.30;99.90;;;;;;5118372;27;20043;-64
2022/12/31 07:39:26;;;;;;;4.47;3.17;;;10.30;99.90;;;;;;5114358;27;20050;-64
2022/12/31 07:42:01;;;;;;;5.88;3.50;;;10.30;99.90;;;;;;5094879;28;20130;-64
2022/12/31 07:44:58;;;;;;;3.55;2.75;;;10.30;99.90;;;;;;5097620;28;20044;-64
2022/12/31 07:47:28;;;;;;;5.53;3.05;;;10.30;99.90;;;;;;5096209;28;20499;-64
2022/12/31 07:49:56;;;;;;;4.23;3.20;;;10.30;99.90;;;;;;5109876;28;20039;-64
2022/12/31 07:52:24;;;;;;;5.10;3.40;;;10.30;99.90;;;;;;5095287;28;20441;-64
2022/12/31 07:54:51;;;;;;;6.45;3.50;;;10.20;99.90;;;;;;5096421;28;20446;-63
2022/12/31 07:57:20;;;;;;;4.88;3.05;;;10.30;99.90;;;;;;5096183;28;20047;-64
2022/12/31 08:00:05;;;;;;;5.15;2.70;;;10.20;99.90;;;;;;5111326;28;20043;-64
2022/12/31 08:03:01;;;;;;;5.22;2.90;;;10.20;99.90;;;;;;5110296;28;20047;-64
2022/12/31 08:05:33;;;;;;;4.43;2.95;;;10.30;99.90;;;;;;5110563;28;20384;-64
2022/12/31 08:08:07;;;;;;;5.05;3.25;;;10.30;99.90;;;;;;5111020;28;20048;-63
2022/12/31 08:10:39;;;;;;;6.55;3.85;;;10.30;99.90;;;;;;5110466;28;20100;-63
2022/12/31 08:13:11;;;;;;;4.38;3.50;;;10.30;99.90;;;;;;5093755;28;20078;-63
2022/12/31 08:15:38;;;;;;;5.95;3.30;;;10.30;99.90;;;;;;5094449;28;20417;-63
2022/12/31 08:18:08;;;;;;;3.70;2.83;;;10.30;99.90;;;;;;5094010;28;20394;-63
2022/12/31 08:20:43;;;;;;;4.60;3.30;;;10.30;99.90;;;;;;5093449;28;20113;-63
2022/12/31 08:23:22;;;;;;;3.95;3.10;;;10.30;99.90;;;;;;5111834;28;20047;-63
2022/12/31 08:26:06;;;;;;;4.82;3.47;;;10.30;99.90;;;;;;5116802;27;20050;-63
2022/12/31 08:28:54;;;;;;;4.20;2.72;;;10.30;99.90;;;;;;5116652;27;20039;-63
2022/12/31 08:31:28;;;;;;;2.90;2.05;;;10.30;99.90;;;;;;5115922;27;20055;-63
2022/12/31 08:34:04;;;;;;;3.58;2.47;;;10.30;99.90;;;;;;5116338;27;20120;-63
2022/12/31 08:36:39;;;;;;;4.53;1.80;;;10.30;99.90;;;;;;5098016;27;20080;-63
2022/12/31 08:39:17;;;;;;;2.38;1.67;;;10.40;99.90;;;;;;5097367;27;20058;-64
2022/12/31 08:41:46;;;;;;;2.20;1.70;;;10.40;99.90;;;;;;5116375;27;20066;-63
2022/12/31 08:44:22;;;;;;;2.65;1.60;;;10.50;99.90;;;;;;5096918;28;20044;-63
2022/12/31 08:46:56;;;;;;;2.13;1.40;;;10.50;99.90;;;;;;5116610;27;20048;-63
2022/12/31 08:49:26;;;;;;;2.50;1.80;;;10.60;99.90;;;;;;5097698;28;20146;-62
2022/12/31 08:51:53;;;;;;;3.17;1.83;;;10.60;99.90;;;;;;5097557;28;20112;-62
2022/12/31 08:54:21;;;;;;;3.00;1.77;;;10.70;99.90;;;;;;5097159;27;20043;-63
2022/12/31 08:56:53;;;;;;;3.67;2.65;;;10.70;99.90;;;;;;5095295;28;20734;-63
2022/12/31 08:59:31;;;;;;;3.67;2.63;;;10.80;99.90;;;;;;5095048;28;20043;-63
2022/12/31 09:02:30;;;;;;;19.23;17.23;;;10.80;99.90;;;;;;5096687;28;20047;-63
2022/12/31 09:05:09;;;;;;;5.22;3.58;;;11.00;99.90;;;;;;5097104;28;20132;-64
2022/12/31 09:07:39;;;;;;;3.60;3.10;;;11.10;99.90;;;;;;5096356;28;20055;-64
2022/12/31 09:10:18;;;;;;;4.07;3.20;;;11.10;99.90;;;;;;5114198;28;20055;-64
2022/12/31 09:12:54;;;;;;;4.32;3.30;;;11.20;99.90;;;;;;5113990;27;20440;-65
2022/12/31 09:15:26;;;;;;;4.40;3.58;;;11.30;99.90;;;;;;5114119;27;20040;-63
2022/12/31 09:17:54;;;;;;;4.30;3.30;;;11.30;99.90;;;;;;5095782;27;20055;-64
2022/12/31 09:20:25;;;;;;;5.13;3.47;;;11.40;99.90;;;;;;5096820;28;20050;-63
2022/12/31 09:22:54;;;;;;;4.90;3.10;;;11.50;99.90;;;;;;5096882;28;20050;-63
2022/12/31 09:25:23;;;;;;;4.50;3.17;;;11.60;99.90;;;;;;5095616;28;20095;-63
2022/12/31 09:28:00;;;;;;;4.07;3.30;;;11.70;99.90;;;;;;5101029;27;20498;-63
2022/12/31 09:30:28;;;;;;;5.93;2.97;;;11.70;99.90;;;;;;5095882;28;20051;-63
2022/12/31 09:33:02;;;;;;;4.80;3.03;;;11.80;99.90;;;;;;5096400;27;20043;-62
2022/12/31 09:35:37;;;;;;;5.13;3.45;;;11.90;99.90;;;;;;5113439;27;20055;-63
2022/12/31 09:38:13;;;;;;;6.70;2.67;;;11.90;99.90;;;;;;5114257;27;20052;-63
2022/12/31 09:41:18;;;;;;;5.43;2.70;;;11.90;99.90;;;;;;5114594;27;20063;-64
2022/12/31 09:44:22;;;;;;;4.85;2.47;;;11.90;99.90;;;;;;5126482;27;20050;-64
2022/12/31 09:47:28;;;;;;;6.13;2.40;;;12.00;99.90;;;;;;5114456;27;20056;-64
2022/12/31 09:50:34;;;;;;;4.53;1.95;;;12.10;99.90;;;;;;5096784;28;20047;-64
2022/12/31 09:53:30;;;;;;;3.90;2.08;;;12.20;99.90;;;;;;5096409;28;20104;-64
2022/12/31 09:56:02;;;;;;;2.40;1.75;;;12.30;99.90;;;;;;5109818;27;20051;-64
2022/12/31 09:58:41;;;;;;;7.03;4.72;;;12.30;99.90;;;;;;5096225;28;20050;-64
2022/12/31 10:01:27;;;;;;;3.67;2.03;;;12.30;99.90;;;;;;5132682;27;20043;-64
2022/12/31 10:04:22;;;;;;;4.15;1.58;;;12.40;99.90;;;;;;5114620;27;20046;-64
2022/12/31 10:07:00;;;;;;;4.00;2.38;;;12.40;99.90;;;;;;5094783;27;21329;-61
2022/12/31 10:09:46;;;;;;;2.38;1.33;;;12.50;99.90;;;;;;5094362;28;20044;-63
2022/12/31 10:12:38;;;;;;;5.10;1.25;;;12.50;99.90;;;;;;5097264;28;20063;-63
2022/12/31 10:15:30;;;;;;;2.92;1.50;;;12.50;99.90;;;;;;5113308;27;20073;-63
2022/12/31 10:18:09;;;;;;;3.25;1.15;;;12.60;99.90;;;;;;5102931;28;20054;-64
2022/12/31 10:20:54;;;;;;;3.13;1.73;;;12.70;99.90;;;;;;5120371;27;20058;-63
2022/12/31 10:23:37;;;;;;;3.70;1.30;;;12.70;99.90;;;;;;5094654;28;20096;-64
2022/12/31 10:26:21;;;;;;;6.25;1.67;;;12.80;99.90;;;;;;5095167;28;20051;-64
2022/12/31 10:28:55;;;;;;;4.30;1.80;;;12.80;99.90;;;;;;5112605;27;20058;-63
2022/12/31 10:31:38;;;;;;;5.05;1.67;;;12.80;99.90;;;;;;5094997;28;20457;-64
2022/12/31 10:34:13;;;;;;;5.10;1.60;;;12.90;99.90;;;;;;5112707;28;20039;-64
2022/12/31 10:36:53;;;;;;;8.32;2.45;;;12.90;99.90;;;;;;5095265;28;20171;-64
2022/12/31 10:39:34;;;;;;;8.73;2.22;;;12.90;99.90;;;;;;5112978;27;20047;-64
2022/12/31 10:42:29;;;;;;;5.80;1.90;;;13.00;99.90;;;;;;5097105;28;20066;-64
2022/12/31 10:45:35;;;;;;;8.15;2.03;;;13.00;99.90;;;;;;5093139;28;20172;-64
2022/12/31 10:48:39;;;;;;;6.85;1.88;;;13.20;99.90;;;;;;5095091;27;20058;-64
2022/12/31 10:51:35;;;;;;;8.65;2.97;;;13.60;99.90;;;;;;5112364;28;20097;-64
2022/12/31 10:54:38;;;;;;;5.53;2.08;;;13.80;99.90;;;;;;5094564;28;20043;-63
2022/12/31 10:57:34;;;;;;;6.22;1.73;;;13.90;99.90;;;;;;5094169;28;20047;-63
2022/12/31 11:00:16;;;;;;;9.27;1.90;;;13.80;99.90;;;;;;5093001;27;20104;-63
2022/12/31 11:03:10;;;;;;;5.07;1.85;;;13.80;99.90;;;;;;5112654;27;20438;-64
2022/12/31 11:06:10;;;;;;;10.30;4.28;;;13.80;99.90;;;;;;5118858;27;20045;-64
2022/12/31 11:09:05;;;;;;;8.32;2.13;;;13.60;99.90;;;;;;5112411;28;20453;-64
2022/12/31 11:11:39;;;;;;;8.90;2.55;;;13.60;99.90;;;;;;5101156;28;20047;-64
2022/12/31 11:14:34;;;;;;;7.78;2.53;;;13.50;99.90;;;;;;5111570;28;20058;-64
2022/12/31 11:17:15;;;;;;;4.78;2.15;;;13.50;99.90;;;;;;5122350;27;20047;-64
2022/12/31 11:19:55;;;;;;;9.23;2.58;;;13.50;99.90;;;;;;5111038;28;20058;-64
2022/12/31 11:22:44;;;;;;;9.75;3.03;;;13.40;99.90;;;;;;5111062;28;20399;-64
2022/12/31 11:25:28;;;;;;;12.27;3.70;;;13.40;99.90;;;;;;5096275;28;20050;-64
2022/12/31 11:28:21;;;;;;;8.60;2.90;;;13.40;99.90;;;;;;5111910;28;20054;-64
2022/12/31 11:31:11;;;;;;;9.63;2.78;;;13.50;99.90;;;;;;5110546;28;20043;-64
2022/12/31 11:33:50;;;;;;;8.82;2.72;;;13.50;99.90;;;;;;5092052;28;20047;-64
2022/12/31 11:36:24;;;;;;;11.43;2.88;;;13.50;99.90;;;;;;5094602;28;20066;-64
2022/12/31 11:38:53;;;;;;;8.20;2.00;;;13.50;99.90;;;;;;5092849;28;20075;-64
2022/12/31 11:41:25;;;;;;;7.43;2.78;;;13.50;99.90;;;;;;5091775;28;20105;-64
2022/12/31 11:44:14;;;;;;;9.90;3.65;;;13.50;99.90;;;;;;5111245;28;20043;-64
2022/12/31 11:46:56;;;;;;;12.30;2.47;;;13.50;99.90;;;;;;5111053;28;20133;-64
2022/12/31 11:49:54;;;;;;;12.32;2.60;;;13.50;99.90;;;;;;5092919;28;20078;-64
2022/12/31 11:52:51;;;;;;;11.90;3.58;;;13.50;99.90;;;;;;5091762;28;20051;-65
2022/12/31 11:55:46;;;;;;;8.63;3.17;;;13.40;99.90;;;;;;5110190;28;20105;-65
2022/12/31 11:58:16;;;;;;;13.23;9.00;;;13.30;99.90;;;;;;5092583;28;20070;-63
2022/12/31 12:00:51;;;;;;;9.23;3.35;;;13.30;99.90;;;;;;5108168;27;20051;-64
2022/12/31 12:03:19;;;;;;;6.13;2.75;;;13.40;99.90;;;;;;5095764;28;20090;-65
2022/12/31 12:05:46;;;;;;;5.18;2.10;;;13.40;99.90;;;;;;5095914;28;20078;-65
2022/12/31 12:08:14;;;;;;;5.82;2.13;;;13.40;99.90;;;;;;5097675;27;20055;-65
2022/12/31 12:10:45;;;;;;;5.32;1.90;;;13.40;99.90;;;;;;5105919;27;20046;-64
2022/12/31 12:13:21;;;;;;;6.13;1.98;;;13.30;99.90;;;;;;5099318;27;20060;-64
2022/12/31 12:15:50;;;;;;;8.75;3.42;;;13.30;99.90;;;;;;5111411;27;20039;-64
2022/12/31 12:18:42;;;;;;;8.50;2.72;;;13.30;99.90;;;;;;5095076;28;20051;-64
2022/12/31 12:21:12;;;;;;;6.28;2.60;;;13.30;99.90;;;;;;5094075;28;20043;-64
2022/12/31 12:23:41;;;;;;;5.20;1.88;;;13.20;99.90;;;;;;5097806;28;20048;-64
2022/12/31 12:26:27;;;;;;;14.52;3.28;;;13.20;99.90;;;;;;5096087;28;20039;-64
2022/12/31 12:28:54;;;;;;;9.40;2.80;;;13.20;99.90;;;;;;5096473;28;20043;-64
2022/12/31 12:31:25;;;;;;;8.95;2.72;;;13.20;99.90;;;;;;5096322;28;20055;-65
2022/12/31 12:33:53;;;;;;;12.15;2.58;;;13.20;99.90;;;;;;5114823;27;20048;-64
2022/12/31 12:36:21;;;;;;;7.40;3.05;;;13.20;99.90;;;;;;5114284;27;20047;-64
2022/12/31 12:38:49;;;;;;;8.02;2.40;;;13.10;99.90;;;;;;5097017;27;20449;-64
2022/12/31 12:41:25;;;;;;;12.77;3.00;;;13.20;99.90;;;;;;5095946;28;20495;-63
2022/12/31 12:44:02;;;;;;;13.88;4.38;;;13.20;99.90;;;;;;5097077;27;20047;-63
2022/12/31 12:46:32;;;;;;;10.38;3.75;;;13.10;99.90;;;;;;5096259;28;20047;-63
2022/12/31 12:49:02;;;;;;;10.40;2.25;;;13.20;99.90;;;;;;5119229;27;20441;-63
2022/12/31 12:51:49;;;;;;;11.68;3.10;;;13.20;99.90;;;;;;5096172;28;20079;-63
2022/12/31 12:54:30;;;;;;;9.77;2.95;;;13.20;99.90;;;;;;5107426;27;20047;-64
2022/12/31 12:57:04;;;;;;;8.95;2.78;;;13.10;99.90;;;;;;5117550;27;20043;-64
2022/12/31 13:00:09;;;;;;;9.55;4.15;;;13.20;99.90;;;;;;5115251;27;20048;-64
2022/12/31 13:03:09;;;;;;;27.40;16.75;;;13.20;99.90;;;;;;5095727;28;20059;-65
2022/12/31 13:05:47;;;;;;;6.30;2.88;;;13.20;99.90;;;;;;5077898;27;20055;-65
2022/12/31 13:08:28;;;;;;;91.45;53.33;;;13.20;99.90;;;;;;5096245;28;20098;-63
2022/12/31 13:11:10;;;;;;;12.52;5.18;;;13.30;99.90;;;;;;5119138;27;20039;-63
2022/12/31 13:13:46;;;;;;;9.63;5.57;;;13.30;99.90;;;;;;5095647;28;20142;-63
2022/12/31 13:16:21;;;;;;;8.75;2.65;;;13.30;99.90;;;;;;5104922;27;20048;-64
2022/12/31 13:18:57;;;;;;;13.00;2.50;;;13.30;99.90;;;;;;5124510;27;20096;-63
2022/12/31 13:21:45;;;;;;;9.43;3.15;;;13.30;99.90;;;;;;5119114;27;20452;-64
2022/12/31 13:24:23;;;;;;;9.02;2.53;;;13.30;99.90;;;;;;5110893;27;20055;-64
2022/12/31 13:26:57;;;;;;;8.43;2.88;;;13.30;99.90;;;;;;5114435;27;20048;-64